HAN weather

Noi Bai International Airport
Hanoi, Ha Tay Province, Vietnam

Public forecast

Using degrees Celsius for public forecast. Weather courtesy of forecast.io.

Current aviation weather report (METAR) for Noi Bai International Airport

Retrieved 2019/10/19 04:30 UTC (0 seconds ago):

VVNB 190430Z 01006KT 330V090 CAVOK 28/18 Q1019 NOSIG

Aviation forecast (TAF) for Noi Bai International Airport

Retrieved 2019-10-19 00:36 UTC (4 hours ago):

TAF VVNB 182300Z 1900/1924 02005KT 8000 SCT020